createdAt,value
2023-02-14T00:01:25.237Z,37.30
2023-02-14T00:05:14.183Z,37.70
2023-02-14T00:09:03.401Z,34.40
2023-02-14T00:12:39.606Z,30.70
2023-02-14T00:16:21.471Z,25.20
2023-02-14T00:19:39.937Z,29.60
2023-02-14T00:23:28.777Z,33.10
2023-02-14T00:27:16.623Z,26.80
2023-02-14T00:30:47.615Z,25.40
2023-02-14T00:34:29.161Z,23.20
2023-02-14T00:38:12.310Z,27.40
2023-02-14T00:42:00.944Z,26.60
2023-02-14T00:45:50.046Z,29.40
2023-02-14T00:49:39.172Z,29.60
2023-02-14T00:53:28.375Z,30.50
2023-02-14T00:57:17.821Z,27.10
2023-02-14T01:00:56.530Z,29.20
2023-02-14T01:04:22.458Z,25.50
2023-02-14T01:08:01.381Z,26.20
2023-02-14T01:11:50.239Z,28.10
2023-02-14T01:15:11.412Z,27.00
2023-02-14T01:19:00.635Z,24.20
2023-02-14T01:22:49.828Z,27.00
2023-02-14T01:26:32.489Z,26.60
2023-02-14T01:30:00.844Z,24.00
2023-02-14T01:33:40.397Z,21.80
2023-02-14T01:37:18.172Z,25.00
2023-02-14T01:41:07.477Z,21.60
2023-02-14T01:44:56.562Z,23.00
2023-02-14T01:48:45.856Z,20.60
2023-02-14T01:52:22.901Z,22.30
2023-02-14T01:56:00.564Z,22.60
2023-02-14T01:59:43.331Z,21.40
2023-02-14T02:03:25.810Z,19.80
2023-02-14T02:07:15.060Z,23.20
2023-02-14T02:11:04.098Z,25.20
2023-02-14T02:14:43.263Z,24.10
2023-02-14T02:18:50.622Z,25.30
2023-02-14T02:22:55.020Z,22.60
2023-02-14T02:27:03.200Z,23.80
2023-02-14T02:30:54.921Z,23.10
2023-02-14T02:35:02.101Z,23.80
2023-02-14T02:38:48.715Z,20.70
2023-02-14T02:43:06.830Z,20.40
2023-02-14T02:47:07.619Z,18.80
2023-02-14T02:50:53.872Z,22.10
2023-02-14T02:54:34.174Z,18.90
2023-02-14T02:58:23.328Z,21.80
2023-02-14T03:02:04.691Z,20.60
2023-02-14T03:05:50.844Z,19.80
2023-02-14T03:09:24.990Z,19.60
2023-02-14T03:13:09.103Z,20.10
2023-02-14T03:17:16.314Z,21.10
2023-02-14T03:21:23.368Z,17.90
2023-02-14T03:25:21.247Z,18.70
2023-02-14T03:29:17.699Z,21.70
2023-02-14T03:33:06.839Z,17.20
2023-02-14T03:36:46.554Z,16.60
2023-02-14T03:40:40.869Z,21.40
2023-02-14T03:44:10.285Z,20.70
2023-02-14T03:47:57.147Z,16.40
2023-02-14T03:51:36.432Z,18.00
2023-02-14T03:55:11.474Z,18.00
2023-02-14T03:59:12.888Z,22.40
2023-02-14T04:03:13.649Z,15.60
2023-02-14T04:06:41.372Z,18.60
2023-02-14T04:09:53.200Z,19.10
2023-02-14T04:13:28.905Z,17.80
2023-02-14T04:16:59.893Z,20.10
2023-02-14T04:20:45.304Z,19.60
2023-02-14T04:24:33.842Z,17.70
2023-02-14T04:28:09.158Z,18.70
2023-02-14T04:31:58.288Z,18.60
2023-02-14T04:35:37.554Z,18.60
2023-02-14T04:39:00.637Z,18.90
2023-02-14T04:42:32.850Z,20.40
2023-02-14T04:46:21.927Z,20.00
2023-02-14T04:50:00.816Z,15.60
2023-02-14T04:53:43.249Z,16.30
2023-02-14T04:57:32.673Z,16.70
2023-02-14T05:01:09.821Z,18.20
2023-02-14T05:04:49.797Z,16.90
2023-02-14T05:08:39.459Z,15.80
2023-02-14T05:12:21.827Z,15.90
2023-02-14T05:16:10.908Z,17.40
2023-02-14T05:19:59.996Z,16.90
2023-02-14T05:23:49.238Z,17.50
2023-02-14T05:27:27.848Z,17.50
2023-02-14T05:31:19.921Z,13.60
2023-02-14T05:35:09.078Z,14.80
2023-02-14T05:38:58.277Z,18.60
2023-02-14T05:42:22.496Z,15.70
2023-02-14T05:46:01.204Z,16.20
2023-02-14T05:49:50.507Z,17.20
2023-02-14T05:53:06.146Z,17.50
2023-02-14T05:56:14.779Z,14.10
2023-02-14T06:00:04.220Z,15.50
2023-02-14T06:03:10.285Z,14.50
2023-02-14T06:06:42.304Z,15.70
2023-02-14T06:09:57.869Z,17.10
2023-02-14T06:13:47.820Z,14.60
2023-02-14T06:17:29.405Z,17.60
2023-02-14T06:21:17.546Z,15.90
2023-02-14T06:25:06.680Z,15.10
2023-02-14T06:28:58.666Z,15.50
2023-02-14T06:32:37.554Z,18.90
2023-02-14T06:36:26.765Z,16.60
2023-02-14T06:40:16.016Z,15.80
2023-02-14T06:43:40.123Z,21.20
2023-02-14T06:47:14.705Z,24.00
2023-02-14T06:50:56.209Z,24.90
2023-02-14T06:54:37.992Z,25.00
2023-02-14T06:58:19.482Z,21.90
2023-02-14T07:02:01.307Z,16.50
2023-02-14T07:05:26.480Z,19.10
2023-02-14T07:09:01.567Z,17.80
2023-02-14T07:12:50.688Z,15.80
2023-02-14T07:16:39.659Z,17.00
2023-02-14T07:20:00.129Z,18.30
2023-02-14T07:23:32.718Z,15.90
2023-02-14T07:27:08.924Z,15.70
2023-02-14T07:30:50.820Z,15.80
2023-02-14T07:34:38.467Z,16.10
2023-02-14T07:38:20.341Z,15.60
2023-02-14T07:41:49.453Z,14.10
2023-02-14T07:45:20.648Z,14.50
2023-02-14T07:49:00.200Z,17.30
2023-02-14T07:52:34.628Z,17.80
2023-02-14T07:56:22.532Z,17.10
2023-02-14T08:00:11.700Z,14.40
2023-02-14T08:03:49.271Z,16.50
2023-02-14T08:07:21.567Z,15.70
2023-02-14T08:10:56.111Z,18.40
2023-02-14T08:14:34.013Z,16.90
2023-02-14T08:18:08.904Z,15.10
2023-02-14T08:21:51.460Z,18.30
2023-02-14T08:25:40.448Z,17.20
2023-02-14T08:29:22.277Z,21.10
2023-02-14T08:33:10.016Z,20.60
2023-02-14T08:36:57.969Z,19.20
2023-02-14T08:40:23.482Z,20.30
2023-02-14T08:44:12.542Z,17.90
2023-02-14T08:48:02.127Z,19.60
2023-02-14T08:51:46.131Z,16.70
2023-02-14T08:55:35.119Z,20.30
2023-02-14T08:59:24.091Z,19.60
2023-02-14T09:03:13.215Z,21.40
2023-02-14T09:07:05.314Z,18.50
2023-02-14T09:10:40.322Z,21.70
2023-02-14T09:14:17.037Z,22.10
2023-02-14T09:18:06.532Z,23.30
2023-02-14T09:21:55.568Z,20.20
2023-02-14T09:25:37.063Z,19.00
2023-02-14T09:29:24.677Z,17.70
2023-02-14T09:33:06.119Z,17.10
2023-02-14T09:36:48.952Z,16.10
2023-02-14T09:40:31.552Z,17.70
2023-02-14T09:44:26.283Z,16.10
2023-02-14T09:48:14.083Z,17.60
2023-02-14T09:51:54.287Z,16.70
2023-02-14T09:55:38.501Z,18.30
2023-02-14T09:59:42.905Z,15.90
2023-02-14T10:03:56.686Z,15.30
2023-02-14T10:08:06.907Z,18.10
2023-02-14T10:12:04.841Z,15.20
2023-02-14T10:15:53.793Z,17.20
2023-02-14T10:19:56.704Z,16.40
2023-02-14T10:24:00.632Z,16.10
2023-02-14T10:34:59.291Z,12.40
2023-02-14T10:39:42.129Z,12.60
2023-02-14T10:44:14.308Z,8.40
2023-02-14T10:48:41.785Z,9.10
2023-02-14T10:56:27.264Z,13.20
2023-02-14T11:01:05.930Z,9.10
2023-02-14T11:05:35.929Z,9.90
2023-02-14T11:09:45.206Z,9.80
2023-02-14T11:17:08.545Z,8.80
2023-02-14T11:31:07.152Z,6.30
2023-02-14T11:43:17.591Z,5.00
2023-02-14T11:47:33.453Z,5.30
2023-02-14T11:52:01.590Z,5.00
2023-02-14T11:56:32.138Z,7.90
2023-02-14T12:10:20.032Z,5.30
2023-02-14T12:14:14.411Z,7.90
2023-02-14T12:23:04.332Z,11.00
2023-02-14T12:26:54.917Z,8.40
2023-02-14T12:30:47.331Z,8.50
2023-02-14T12:34:50.619Z,9.20
2023-02-14T12:44:21.036Z,9.30
2023-02-14T12:49:11.166Z,7.20
2023-02-14T12:53:43.133Z,9.00
2023-02-14T12:58:09.081Z,9.30
2023-02-14T13:02:57.247Z,8.40
2023-02-14T13:07:28.569Z,8.40
2023-02-14T13:11:35.136Z,10.00
2023-02-14T13:22:19.842Z,11.20
2023-02-14T13:26:27.162Z,9.50
2023-02-14T13:34:43.772Z,8.70
2023-02-14T13:42:40.493Z,9.50
2023-02-14T13:46:33.069Z,9.90
2023-02-14T13:50:27.631Z,10.20
2023-02-14T13:58:28.731Z,11.30
2023-02-14T14:02:21.639Z,9.60
2023-02-14T14:06:14.591Z,9.00
2023-02-14T14:13:57.109Z,8.50
2023-02-14T14:26:19.107Z,12.10
2023-02-14T14:30:27.637Z,10.40
2023-02-14T14:34:20.160Z,11.90
2023-02-14T14:38:36.044Z,12.50
2023-02-14T14:42:37.245Z,10.10
2023-02-14T14:46:38.281Z,11.40
2023-02-14T14:50:29.159Z,9.30
2023-02-14T14:54:25.894Z,9.20
2023-02-14T14:58:39.833Z,9.70
2023-02-14T15:02:39.362Z,11.50
2023-02-14T15:06:31.790Z,12.30
2023-02-14T15:10:47.011Z,11.40
2023-02-14T15:15:22.844Z,15.70
2023-02-14T15:20:02.089Z,13.00
2023-02-14T15:24:31.812Z,13.20
2023-02-14T15:29:08.660Z,13.40
2023-02-14T15:33:33.807Z,12.70
2023-02-14T15:38:04.004Z,14.00
2023-02-14T15:42:24.965Z,12.80
2023-02-14T15:46:39.257Z,12.90
2023-02-14T15:50:28.876Z,18.10
2023-02-14T15:54:22.359Z,11.60
2023-02-14T15:58:17.886Z,12.30
2023-02-14T16:02:21.800Z,9.40
2023-02-14T16:06:50.258Z,12.30
2023-02-14T16:10:45.976Z,11.40
2023-02-14T16:14:36.307Z,11.10
2023-02-14T16:18:26.558Z,12.10
2023-02-14T16:22:36.174Z,10.80
2023-02-14T16:27:08.085Z,10.30
2023-02-14T16:37:14.259Z,11.90
2023-02-14T16:41:45.300Z,14.30
2023-02-14T16:45:40.240Z,12.50
2023-02-14T16:50:13.027Z,17.30
2023-02-14T16:54:34.615Z,15.80
2023-02-14T16:58:28.384Z,18.30
2023-02-14T17:02:18.396Z,19.40
2023-02-14T17:06:08.107Z,14.50
2023-02-14T17:09:57.780Z,14.20
2023-02-14T17:13:41.147Z,18.80
2023-02-14T17:17:22.523Z,23.10
2023-02-14T17:21:52.837Z,29.70
2023-02-14T17:26:22.664Z,28.10
2023-02-14T17:30:53.883Z,21.00
2023-02-14T17:35:03.270Z,19.40
2023-02-14T17:39:31.512Z,24.80
2023-02-14T17:44:02.424Z,26.40
2023-02-14T17:48:32.655Z,29.40
2023-02-14T17:53:04.482Z,25.50
2023-02-14T17:57:35.629Z,23.50
2023-02-14T18:02:08.582Z,29.40
2023-02-14T18:06:39.201Z,29.40
2023-02-14T18:11:10.009Z,27.30
2023-02-14T18:15:41.745Z,23.80
2023-02-14T18:20:13.429Z,21.80
2023-02-14T18:24:45.902Z,22.40
2023-02-14T18:29:16.269Z,23.20
2023-02-14T18:33:49.066Z,41.10
2023-02-14T18:38:18.974Z,46.60
2023-02-14T18:42:48.638Z,35.80
2023-02-14T18:47:18.152Z,90.00
2023-02-14T18:51:53.900Z,94.30
2023-02-14T18:56:23.915Z,37.10
2023-02-14T19:00:54.914Z,99.20
2023-02-14T19:05:27.059Z,76.80
2023-02-14T19:09:58.622Z,46.00
2023-02-14T19:14:29.416Z,38.00
2023-02-14T19:19:00.138Z,41.90
2023-02-14T19:23:30.370Z,50.00
2023-02-14T19:28:05.001Z,44.90
2023-02-14T19:35:37.714Z,53.00
2023-02-14T19:40:06.281Z,53.70
2023-02-14T19:44:44.927Z,42.00
2023-02-14T19:49:15.104Z,52.60
2023-02-14T19:53:47.604Z,50.80
2023-02-14T19:58:18.260Z,62.40
2023-02-14T20:02:49.673Z,63.50
2023-02-14T20:07:20.874Z,53.80
2023-02-14T20:15:52.179Z,38.80
2023-02-14T20:20:13.783Z,58.50
2023-02-14T20:23:46.375Z,52.50
2023-02-14T20:27:36.615Z,53.40
2023-02-14T20:31:15.953Z,49.50
2023-02-14T20:35:08.077Z,38.80
2023-02-14T20:38:52.211Z,32.50
2023-02-14T20:42:41.711Z,42.00
2023-02-14T20:45:53.725Z,44.80
2023-02-14T20:49:33.486Z,53.00
2023-02-14T20:52:31.062Z,45.40
2023-02-14T20:56:15.087Z,41.90
2023-02-14T20:59:48.353Z,47.60
2023-02-14T21:03:44.856Z,49.50
2023-02-14T21:07:18.371Z,46.10
2023-02-14T21:11:10.609Z,53.20
2023-02-14T21:14:49.607Z,79.70
2023-02-14T21:18:39.544Z,355.90
2023-02-14T21:22:30.134Z,440.80
2023-02-14T21:26:05.520Z,381.20
2023-02-14T21:29:41.557Z,309.90
2023-02-14T21:33:08.960Z,315.30
2023-02-14T21:36:58.682Z,313.90
2023-02-14T21:40:31.745Z,260.30
2023-02-14T21:44:20.684Z,275.10
2023-02-14T21:48:02.932Z,261.50
2023-02-14T21:51:46.299Z,280.80
2023-02-14T21:55:18.515Z,284.40
2023-02-14T21:58:35.284Z,282.50
2023-02-14T22:02:24.548Z,243.20
2023-02-14T22:06:02.881Z,229.60
2023-02-14T22:09:50.651Z,215.20
2023-02-14T22:13:14.890Z,254.40
2023-02-14T22:16:55.341Z,272.30
2023-02-14T22:20:43.232Z,223.10
2023-02-14T22:24:28.454Z,282.80
2023-02-14T22:28:06.336Z,252.00
2023-02-14T22:31:55.566Z,208.40
2023-02-14T22:35:34.356Z,163.20
2023-02-14T22:39:14.748Z,149.50
2023-02-14T22:43:03.991Z,125.00
2023-02-14T22:46:52.953Z,116.80
2023-02-14T22:50:35.379Z,113.80
2023-02-14T22:54:25.512Z,175.10
2023-02-14T22:58:14.920Z,205.60
2023-02-14T23:02:19.422Z,138.00
2023-02-14T23:06:49.840Z,219.30
2023-02-14T23:11:18.847Z,316.70
2023-02-14T23:15:46.403Z,502.70
2023-02-14T23:20:13.968Z,318.70
2023-02-14T23:24:43.293Z,533.20
2023-02-14T23:29:21.861Z,317.80
2023-02-14T23:33:33.844Z,254.70
2023-02-14T23:38:05.081Z,244.30
2023-02-14T23:42:37.554Z,261.00
2023-02-14T23:47:06.600Z,235.50
2023-02-14T23:51:40.535Z,251.60
